createdAt,value
2023-03-12T00:01:25.424Z,-3.60
2023-03-12T00:03:52.431Z,-3.62
2023-03-12T00:06:19.440Z,-3.68
2023-03-12T00:08:46.162Z,-3.74
2023-03-12T00:11:13.925Z,-3.82
2023-03-12T00:13:42.124Z,-3.91
2023-03-12T00:16:14.588Z,-3.89
2023-03-12T00:18:41.857Z,-3.94
2023-03-12T00:21:08.514Z,-3.89
2023-03-12T00:23:35.148Z,-3.94
2023-03-12T00:26:03.483Z,-4.00
2023-03-12T00:28:30.657Z,-4.03
2023-03-12T00:30:58.429Z,-4.10
2023-03-12T00:33:25.989Z,-4.09
2023-03-12T00:35:53.495Z,-4.12
2023-03-12T00:38:20.230Z,-4.17
2023-03-12T00:40:46.719Z,-4.21
2023-03-12T00:43:13.320Z,-4.21
2023-03-12T00:45:39.867Z,-4.22
2023-03-12T00:48:06.591Z,-4.26
2023-03-12T00:50:33.156Z,-4.26
2023-03-12T00:52:59.592Z,-4.29
2023-03-12T00:55:26.266Z,-4.26
2023-03-12T00:57:52.741Z,-4.25
2023-03-12T01:00:28.252Z,-4.19
2023-03-12T01:02:54.964Z,-4.17
2023-03-12T01:05:22.984Z,-4.21
2023-03-12T01:07:50.573Z,-4.66
2023-03-12T01:10:18.304Z,-4.67
2023-03-12T01:12:44.797Z,-4.50
2023-03-12T01:15:13.792Z,-4.40
2023-03-12T01:17:40.422Z,-4.32
2023-03-12T01:20:08.336Z,-4.24
2023-03-12T01:22:36.699Z,-4.22
2023-03-12T01:25:05.418Z,-4.23
2023-03-12T01:27:31.905Z,-4.22
2023-03-12T01:29:58.416Z,-4.60
2023-03-12T01:32:25.456Z,-4.57
2023-03-12T01:34:51.925Z,-4.56
2023-03-12T01:37:18.358Z,-4.73
2023-03-12T01:39:46.070Z,-4.55
2023-03-12T01:42:14.226Z,-4.68
2023-03-12T01:44:51.160Z,-4.66
2023-03-12T01:47:18.694Z,-4.61
2023-03-12T01:49:45.777Z,-4.71
2023-03-12T01:52:16.833Z,-4.57
2023-03-12T01:54:45.798Z,-4.78
2023-03-12T01:57:14.941Z,-4.90
2023-03-12T01:59:44.022Z,-4.90
2023-03-12T02:02:10.672Z,-4.94
2023-03-12T02:04:38.802Z,-4.95
2023-03-12T02:07:12.809Z,-4.94
2023-03-12T02:09:43.688Z,-4.81
2023-03-12T02:12:11.318Z,-4.76
2023-03-12T02:14:39.618Z,-4.87
2023-03-12T02:17:08.185Z,-4.89
2023-03-12T02:19:34.639Z,-4.93
2023-03-12T02:22:01.725Z,-4.95
2023-03-12T02:24:39.218Z,-4.77
2023-03-12T02:27:06.986Z,-4.78
2023-03-12T02:29:34.652Z,-4.85
2023-03-12T02:32:05.495Z,-4.89
2023-03-12T02:34:31.988Z,-4.88
2023-03-12T02:36:58.462Z,-4.84
2023-03-12T02:39:25.250Z,-4.66
2023-03-12T02:41:54.377Z,-4.73
2023-03-12T02:44:23.595Z,-4.79
2023-03-12T02:46:53.402Z,-4.78
2023-03-12T02:49:22.185Z,-4.62
2023-03-12T02:51:48.993Z,-4.65
2023-03-12T02:54:16.096Z,-4.71
2023-03-12T02:56:42.579Z,-4.73
2023-03-12T02:59:09.390Z,-4.73
2023-03-12T03:01:36.388Z,-4.68
2023-03-12T03:04:03.910Z,-4.59
2023-03-12T03:06:31.055Z,-4.72
2023-03-12T03:08:57.578Z,-4.80
2023-03-12T03:11:24.843Z,-4.80
2023-03-12T03:13:52.266Z,-4.73
2023-03-12T03:16:20.257Z,-4.66
2023-03-12T03:18:46.965Z,-4.74
2023-03-12T03:21:16.661Z,-4.79
2023-03-12T03:23:44.079Z,-4.82
2023-03-12T03:26:10.797Z,-4.86
2023-03-12T03:28:37.894Z,-4.88
2023-03-12T03:31:05.656Z,-4.74
2023-03-12T03:33:34.005Z,-4.82
2023-03-12T03:36:01.348Z,-4.89
2023-03-12T03:38:29.043Z,-4.95
2023-03-12T03:40:56.026Z,-4.97
2023-03-12T03:43:24.193Z,-4.85
2023-03-12T03:46:00.775Z,-4.86
2023-03-12T03:48:27.294Z,-5.03
2023-03-12T03:50:53.748Z,-5.11
2023-03-12T03:53:20.426Z,-5.13
2023-03-12T03:55:47.033Z,-5.19
2023-03-12T03:58:13.712Z,-5.26
2023-03-12T04:00:40.158Z,-5.27
2023-03-12T04:03:06.673Z,-5.19
2023-03-12T04:05:33.201Z,-5.40
2023-03-12T04:08:04.548Z,-5.56
2023-03-12T04:10:31.224Z,-5.69
2023-03-12T04:12:59.267Z,-5.75
2023-03-12T04:15:25.750Z,-5.85
2023-03-12T04:17:52.454Z,-5.94
2023-03-12T04:20:18.966Z,-5.77
2023-03-12T04:22:45.408Z,-5.95
2023-03-12T04:25:13.384Z,-6.09
2023-03-12T04:27:40.230Z,-6.22
2023-03-12T04:30:06.978Z,-6.38
2023-03-12T04:32:33.458Z,-6.46
2023-03-12T04:34:59.956Z,-6.52
2023-03-12T04:37:26.446Z,-6.60
2023-03-12T04:39:54.192Z,-6.73
2023-03-12T04:42:20.683Z,-6.72
2023-03-12T04:44:48.449Z,-6.71
2023-03-12T04:47:16.276Z,-6.92
2023-03-12T04:49:44.251Z,-7.05
2023-03-12T04:52:10.693Z,-7.16
2023-03-12T04:54:37.479Z,-7.25
2023-03-12T04:57:03.974Z,-7.28
2023-03-12T04:59:30.468Z,-7.39
2023-03-12T05:01:56.960Z,-7.39
2023-03-12T05:04:23.421Z,-7.42
2023-03-12T05:06:51.250Z,-7.53
2023-03-12T05:09:17.691Z,-7.58
2023-03-12T05:11:45.404Z,-7.69
2023-03-12T05:14:11.988Z,-7.65
2023-03-12T05:16:38.593Z,-7.44
2023-03-12T05:19:05.551Z,-7.66
2023-03-12T05:21:32.061Z,-7.75
2023-03-12T05:23:58.722Z,-7.84
2023-03-12T05:26:32.934Z,-7.94
2023-03-12T05:29:01.637Z,-8.06
2023-03-12T05:31:28.205Z,-8.08
2023-03-12T05:33:55.997Z,-8.09
2023-03-12T05:36:23.620Z,-8.09
2023-03-12T05:38:51.600Z,-8.15
2023-03-12T05:41:22.284Z,-8.25
2023-03-12T05:43:50.254Z,-8.21
2023-03-12T05:46:17.309Z,-8.23
2023-03-12T05:48:43.917Z,-8.28
2023-03-12T05:51:10.381Z,-8.30
2023-03-12T05:53:36.880Z,-8.40
2023-03-12T05:56:06.121Z,-8.48
2023-03-12T05:58:33.437Z,-8.54
2023-03-12T06:01:00.192Z,-8.66
2023-03-12T06:03:26.761Z,-8.70
2023-03-12T06:05:55.281Z,-8.74
2023-03-12T06:08:24.687Z,-8.81
2023-03-12T06:10:53.298Z,-8.77
2023-03-12T06:13:19.757Z,-8.77
2023-03-12T06:15:46.193Z,-8.77
2023-03-12T06:18:12.684Z,-8.78
2023-03-12T06:20:39.181Z,-8.74
2023-03-12T06:23:05.638Z,-8.69
2023-03-12T06:25:32.929Z,-8.65
2023-03-12T06:28:02.400Z,-8.48
2023-03-12T06:30:30.089Z,-8.40
2023-03-12T06:32:56.556Z,-8.32
2023-03-12T06:35:23.145Z,-8.37
2023-03-12T06:37:49.608Z,-8.24
2023-03-12T06:40:16.187Z,-8.03
2023-03-12T06:42:42.772Z,-8.14
2023-03-12T06:45:09.425Z,-8.07
2023-03-12T06:47:35.857Z,-8.05
2023-03-12T06:50:02.363Z,-8.01
2023-03-12T06:52:30.138Z,-8.15
2023-03-12T06:54:56.593Z,-8.09
2023-03-12T06:57:23.055Z,-8.09
2023-03-12T06:59:50.717Z,-7.96
2023-03-12T07:02:17.916Z,-7.67
2023-03-12T07:04:44.489Z,-7.32
2023-03-12T07:07:11.998Z,-7.14
2023-03-12T07:09:39.712Z,-7.12
2023-03-12T07:12:06.357Z,-7.06
2023-03-12T07:14:32.843Z,-7.02
2023-03-12T07:17:03.120Z,-6.89
2023-03-12T07:19:32.948Z,-6.85
2023-03-12T07:22:00.600Z,-6.77
2023-03-12T07:24:27.080Z,-6.66
2023-03-12T07:26:54.800Z,-6.57
2023-03-12T07:29:21.902Z,-6.47
2023-03-12T07:31:48.474Z,-6.38
2023-03-12T07:34:15.084Z,-6.20
2023-03-12T07:36:41.687Z,-6.14
2023-03-12T07:39:10.117Z,-6.18
2023-03-12T07:41:38.984Z,-6.13
2023-03-12T07:44:06.973Z,-6.17
2023-03-12T07:46:33.780Z,-6.21
2023-03-12T07:49:00.944Z,-6.15
2023-03-12T07:51:27.407Z,-6.10
2023-03-12T07:53:53.915Z,-6.02
2023-03-12T07:56:20.761Z,-5.73
2023-03-12T07:58:47.398Z,-5.73
2023-03-12T08:01:14.037Z,-5.71
2023-03-12T08:03:40.666Z,-5.69
2023-03-12T08:06:07.635Z,-5.59
2023-03-12T08:08:36.178Z,-5.49
2023-03-12T08:11:05.422Z,-5.29
2023-03-12T08:13:31.895Z,-5.18
2023-03-12T08:15:58.473Z,-5.33
2023-03-12T08:18:25.294Z,-5.24
2023-03-12T08:20:52.735Z,-5.14
2023-03-12T08:23:19.533Z,-5.00
2023-03-12T08:25:47.434Z,-4.86
2023-03-12T08:28:14.917Z,-4.87
2023-03-12T08:30:45.633Z,-4.88
2023-03-12T08:33:12.084Z,-4.84
2023-03-12T08:35:38.598Z,-4.60
2023-03-12T08:38:06.321Z,-4.60
2023-03-12T08:40:34.500Z,-4.65
2023-03-12T08:43:02.543Z,-4.67
2023-03-12T08:45:30.245Z,-4.42
2023-03-12T08:47:56.803Z,-4.44
2023-03-12T11:58:40.328Z,-1.34
2023-03-12T12:01:18.253Z,-1.45
2023-03-12T12:03:59.776Z,-1.73
2023-03-12T12:06:57.442Z,-1.89
2023-03-12T12:09:30.284Z,-1.87
2023-03-12T12:12:12.531Z,-2.02
2023-03-12T12:15:02.427Z,-2.04
2023-03-12T12:17:50.036Z,-1.81
2023-03-12T12:20:26.794Z,-1.90
2023-03-12T12:23:23.293Z,-1.94
2023-03-12T12:25:57.512Z,-1.75
2023-03-12T12:28:36.422Z,-1.82
2023-03-12T12:31:40.578Z,-1.98
2023-03-12T12:34:26.264Z,-1.95
2023-03-12T12:37:20.680Z,-1.84
2023-03-12T12:40:18.858Z,-1.86
2023-03-12T12:43:21.892Z,-1.77
2023-03-12T12:45:51.316Z,-1.48
2023-03-12T12:48:23.811Z,-1.52
2023-03-12T12:50:52.962Z,-1.44
2023-03-12T12:53:43.359Z,-1.21
2023-03-12T12:56:29.054Z,-1.32
2023-03-12T12:59:32.736Z,-1.26
2023-03-12T13:02:02.165Z,-1.06
2023-03-12T13:04:35.176Z,-1.18
2023-03-12T13:07:12.435Z,-1.11
2023-03-12T13:09:50.506Z,-0.78
2023-03-12T13:12:22.323Z,-0.88
2023-03-12T13:14:50.221Z,-0.78
2023-03-12T13:17:20.485Z,-0.54
2023-03-12T13:20:00.963Z,-0.75
2023-03-12T13:22:46.691Z,-0.84
2023-03-12T13:25:34.009Z,-0.53
2023-03-12T13:28:35.977Z,-0.67
2023-03-12T13:31:22.382Z,-0.41
2023-03-12T13:33:53.548Z,-0.19
2023-03-12T13:36:29.174Z,-0.32
2023-03-12T13:39:17.570Z,-0.24
2023-03-12T13:41:47.170Z,-0.13
2023-03-12T13:44:25.215Z,-0.41
2023-03-12T13:47:10.653Z,-0.41
2023-03-12T13:49:44.964Z,-0.21
2023-03-12T13:52:14.516Z,-0.47
2023-03-12T13:54:45.541Z,-0.49
2023-03-12T13:57:32.136Z,-0.25
2023-03-12T14:00:00.178Z,-0.24
2023-03-12T14:02:36.940Z,-0.44
2023-03-12T14:05:08.174Z,-0.49
2023-03-12T14:07:57.785Z,-0.21
2023-03-12T14:11:02.833Z,-0.21
2023-03-12T14:13:32.665Z,-0.31
2023-03-12T14:16:05.737Z,-0.23
2023-03-12T14:18:35.821Z,-0.08
2023-03-12T14:21:07.826Z,-0.22
2023-03-12T14:23:48.673Z,-0.27
2023-03-12T14:26:21.376Z,-0.11
2023-03-12T14:28:55.873Z,-0.07
2023-03-12T14:31:24.273Z,-0.18
2023-03-12T14:33:57.266Z,-0.18
2023-03-12T14:36:28.455Z,0.07
2023-03-12T14:39:10.903Z,-0.03
2023-03-12T14:41:45.202Z,-0.15
2023-03-12T14:44:27.378Z,0.07
2023-03-12T14:47:00.356Z,-0.03
2023-03-12T14:49:28.292Z,-0.05
2023-03-12T14:51:55.693Z,-0.09
2023-03-12T14:54:25.445Z,-0.07
2023-03-12T14:56:52.293Z,0.18
2023-03-12T14:59:26.081Z,0.25
2023-03-12T15:02:10.383Z,0.21
2023-03-12T15:04:38.125Z,0.30
2023-03-12T15:07:09.687Z,0.54
2023-03-12T15:09:37.220Z,0.38
2023-03-12T15:12:17.906Z,0.42
2023-03-12T15:14:44.973Z,0.53
2023-03-12T15:17:20.334Z,0.46
2023-03-12T15:19:48.713Z,0.54
2023-03-12T15:22:18.380Z,0.83
2023-03-12T15:24:45.435Z,0.70
2023-03-12T15:27:23.805Z,0.67
2023-03-12T15:29:51.065Z,0.98
2023-03-12T15:32:20.732Z,0.91
2023-03-12T15:34:48.117Z,0.80
2023-03-12T15:37:39.019Z,1.11
2023-03-12T15:40:19.839Z,0.99
2023-03-12T15:42:48.833Z,0.75
2023-03-12T15:45:21.853Z,0.76
2023-03-12T15:47:49.704Z,0.78
2023-03-12T15:50:24.081Z,0.45
2023-03-12T15:53:05.987Z,0.21
2023-03-12T15:55:36.011Z,0.24
2023-03-12T15:58:03.985Z,0.14
2023-03-12T16:00:43.978Z,-0.26
2023-03-12T16:03:19.089Z,-0.40
2023-03-12T16:05:46.504Z,-0.13
2023-03-12T16:08:15.890Z,-0.32
2023-03-12T16:10:42.582Z,-0.63
2023-03-12T16:13:14.329Z,-0.56
2023-03-12T16:15:41.162Z,-0.59
2023-03-12T16:18:18.797Z,-0.96
2023-03-12T16:20:46.415Z,-0.95
2023-03-12T16:23:13.504Z,-0.85
2023-03-12T16:25:44.174Z,-1.07
2023-03-12T16:28:14.115Z,-1.09
2023-03-12T16:30:41.208Z,-0.95
2023-03-12T16:33:09.433Z,-1.32
2023-03-12T16:35:36.590Z,-1.46
2023-03-12T16:38:04.056Z,-1.73
2023-03-12T16:40:34.266Z,-1.85
2023-03-12T16:43:04.850Z,-1.94
2023-03-12T16:45:34.973Z,-1.78
2023-03-12T16:48:05.259Z,-1.76
2023-03-12T16:50:32.566Z,-1.98
2023-03-12T16:52:59.757Z,-1.73
2023-03-12T16:55:29.608Z,-1.89
2023-03-12T16:58:01.418Z,-2.09
2023-03-12T17:00:30.921Z,-1.86
2023-03-12T17:02:59.155Z,-1.89
2023-03-12T17:05:28.319Z,-2.20
2023-03-12T17:07:55.697Z,-2.36
2023-03-12T17:10:23.155Z,-2.12
2023-03-12T17:12:51.253Z,-2.44
2023-03-12T17:15:26.265Z,-2.70
2023-03-12T17:17:55.617Z,-2.39
2023-03-12T17:20:24.826Z,-2.41
2023-03-12T17:22:51.801Z,-2.51
2023-03-12T17:25:23.028Z,-2.48
2023-03-12T17:27:50.170Z,-2.38
2023-03-12T17:30:17.610Z,-2.58
2023-03-12T17:32:44.794Z,-2.62
2023-03-12T17:35:11.809Z,-2.41
2023-03-12T17:37:39.133Z,-2.62
2023-03-12T17:40:08.117Z,-2.74
2023-03-12T17:42:35.652Z,-2.85
2023-03-12T17:45:03.545Z,-2.92
2023-03-12T17:47:31.087Z,-2.98
2023-03-12T17:49:57.998Z,-2.91
2023-03-12T17:52:25.092Z,-2.90
2023-03-12T17:54:52.031Z,-2.89
2023-03-12T17:57:18.744Z,-2.63
2023-03-12T17:59:45.746Z,-2.81
2023-03-12T18:02:14.690Z,-2.77
2023-03-12T18:04:41.338Z,-2.61
2023-03-12T18:07:08.562Z,-2.84
2023-03-12T18:09:35.501Z,-2.92
2023-03-12T18:12:02.416Z,-2.70
2023-03-12T18:14:30.085Z,-2.99
2023-03-12T18:16:57.113Z,-3.13
2023-03-12T18:19:23.767Z,-3.18
2023-03-12T18:21:50.445Z,-2.99
2023-03-12T18:24:17.071Z,-2.93
2023-03-12T18:26:45.260Z,-3.11
2023-03-12T18:29:12.896Z,-2.99
2023-03-12T18:31:39.531Z,-2.82
2023-03-12T18:34:06.185Z,-3.20
2023-03-12T18:36:33.256Z,-3.30
2023-03-12T18:39:04.977Z,-3.20
2023-03-12T18:41:33.502Z,-3.09
2023-03-12T18:44:00.828Z,-3.30
2023-03-12T18:46:28.292Z,-3.31
2023-03-12T18:48:55.419Z,-3.13
2023-03-12T18:51:22.125Z,-3.51
2023-03-12T18:53:48.758Z,-3.61
2023-03-12T18:56:15.676Z,-3.68
2023-03-12T18:58:42.402Z,-3.68
2023-03-12T19:01:08.988Z,-3.61
2023-03-12T19:03:36.724Z,-3.71
2023-03-12T19:06:11.777Z,-3.84
2023-03-12T19:08:39.850Z,-3.85
2023-03-12T19:11:08.424Z,-3.90
2023-03-12T19:13:36.207Z,-3.85
2023-03-12T19:16:08.767Z,-3.58
2023-03-12T19:18:37.040Z,-3.78
2023-03-12T19:21:04.738Z,-3.80
2023-03-12T19:23:31.340Z,-3.57
2023-03-12T19:25:57.937Z,-3.64
2023-03-12T19:28:24.811Z,-3.75
2023-03-12T19:30:51.440Z,-3.87
2023-03-12T19:33:18.178Z,-4.04
2023-03-12T19:35:44.909Z,-4.10
2023-03-12T19:38:11.552Z,-4.05
2023-03-12T19:40:38.157Z,-4.13
2023-03-12T19:43:04.925Z,-4.23
2023-03-12T19:45:31.549Z,-4.22
2023-03-12T19:47:58.256Z,-4.29
2023-03-12T19:50:25.128Z,-4.34
2023-03-12T19:52:51.821Z,-4.44
2023-03-12T19:55:18.572Z,-4.46
2023-03-12T19:57:45.628Z,-4.41
2023-03-12T20:00:13.144Z,-4.40
2023-03-12T20:02:39.963Z,-4.30
2023-03-12T20:05:07.955Z,-4.57
2023-03-12T20:07:35.288Z,-4.78
2023-03-12T20:10:01.982Z,-4.86
2023-03-12T20:12:28.635Z,-4.94
2023-03-12T20:14:55.294Z,-5.06
2023-03-12T20:17:21.945Z,-5.14
2023-03-12T20:19:48.797Z,-5.09
2023-03-12T20:22:15.590Z,-5.08
2023-03-12T20:24:42.317Z,-5.04
2023-03-12T20:27:08.999Z,-5.04
2023-03-12T20:29:35.638Z,-5.11
2023-03-12T20:32:02.391Z,-4.98
2023-03-12T20:34:29.036Z,-5.04
2023-03-12T20:36:55.706Z,-5.46
2023-03-12T20:39:22.438Z,-5.45
2023-03-12T20:41:49.744Z,-5.46
2023-03-12T20:44:16.963Z,-5.57
2023-03-12T20:46:43.637Z,-5.44
2023-03-12T20:49:10.329Z,-5.56
2023-03-12T20:51:36.999Z,-5.55
2023-03-12T20:54:03.675Z,-5.50
2023-03-12T20:56:30.373Z,-5.68
2023-03-12T20:58:57.360Z,-5.79
2023-03-12T21:01:24.014Z,-5.82
2023-03-12T21:03:50.984Z,-5.80
2023-03-12T21:06:17.618Z,-5.88
2023-03-12T21:08:44.237Z,-6.05
2023-03-12T21:11:10.952Z,-6.25
2023-03-12T21:13:38.209Z,-6.22
2023-03-12T21:16:07.218Z,-6.81
2023-03-12T21:18:34.107Z,-7.07
2023-03-12T21:21:05.645Z,-7.48
2023-03-12T21:23:33.944Z,-7.40
2023-03-12T21:26:03.667Z,-7.31
2023-03-12T21:28:31.427Z,-7.08
2023-03-12T21:31:12.201Z,-7.21
2023-03-12T21:33:39.330Z,-7.42
2023-03-12T21:36:11.371Z,-7.61
2023-03-12T21:38:39.501Z,-7.57
2023-03-12T21:41:11.685Z,-7.67
2023-03-12T21:43:39.399Z,-7.94
2023-03-12T21:46:08.145Z,-7.86
2023-03-12T21:48:35.403Z,-7.85
2023-03-12T21:51:07.701Z,-7.69
2023-03-12T21:53:34.935Z,-7.72
2023-03-12T21:56:03.053Z,-7.56
2023-03-12T21:58:31.850Z,-7.32
2023-03-12T22:01:09.725Z,-7.57
2023-03-12T22:03:36.789Z,-7.50
2023-03-12T22:06:04.877Z,-7.85
2023-03-12T22:08:32.236Z,-7.79
2023-03-12T22:10:59.566Z,-7.72
2023-03-12T22:13:26.421Z,-7.70
2023-03-12T22:15:55.252Z,-7.53
2023-03-12T22:18:22.970Z,-7.67
2023-03-12T22:20:57.897Z,-7.97
2023-03-12T22:23:24.694Z,-8.28
2023-03-12T22:25:51.321Z,-8.11
2023-03-12T22:28:18.980Z,-8.70
2023-03-12T22:30:45.660Z,-8.80
2023-03-12T22:33:12.750Z,-8.93
2023-03-12T22:35:46.574Z,-8.99
2023-03-12T22:38:13.637Z,-8.90
2023-03-12T22:40:41.359Z,-8.57
2023-03-12T22:43:08.281Z,-8.40
2023-03-12T22:45:35.972Z,-8.41
2023-03-12T22:48:03.038Z,-9.08
2023-03-12T22:50:29.783Z,-8.74
2023-03-12T22:52:56.485Z,-8.49
2023-03-12T22:55:23.284Z,-8.75
2023-03-12T22:57:50.092Z,-8.71
2023-03-12T23:00:22.886Z,-9.14
2023-03-12T23:02:50.163Z,-9.20
2023-03-12T23:05:17.282Z,-9.11
2023-03-12T23:07:44.411Z,-9.21
2023-03-12T23:10:11.559Z,-9.12
2023-03-12T23:12:39.086Z,-8.99
2023-03-12T23:15:06.674Z,-9.11
2023-03-12T23:17:33.599Z,-9.51
2023-03-12T23:20:00.203Z,-9.52
2023-03-12T23:22:26.850Z,-9.09
2023-03-12T23:24:53.454Z,-9.45
2023-03-12T23:27:20.096Z,-9.78
2023-03-12T23:29:46.744Z,-9.53
2023-03-12T23:32:13.402Z,-9.12
2023-03-12T23:34:40.037Z,-8.85
2023-03-12T23:37:07.234Z,-9.25
2023-03-12T23:39:44.990Z,-9.31
2023-03-12T23:42:18.943Z,-9.45
2023-03-12T23:44:46.765Z,-9.53
2023-03-12T23:47:13.773Z,-9.22
2023-03-12T23:49:40.363Z,-9.41
2023-03-12T23:52:07.052Z,-9.30
2023-03-12T23:54:33.932Z,-9.36
2023-03-12T23:57:00.526Z,-9.20
2023-03-12T23:59:27.247Z,-8.88
